sensor_id;sensor_type;location;lat;lon;timestamp;pressure;altitude;pressure_sealevel;temperature;humidity
34672;BME280;55835;52.096;21.060;2022-07-23T00:01:04;100429.84;;;25.14;57.19
34672;BME280;55835;52.096;21.060;2022-07-23T00:03:32;100423.63;;;25.13;57.09
34672;BME280;55835;52.096;21.060;2022-07-23T00:05:59;100428.00;;;25.14;57.35
34672;BME280;55835;52.096;21.060;2022-07-23T00:08:25;100428.19;;;25.13;57.38
34672;BME280;55835;52.096;21.060;2022-07-23T00:10:52;100424.66;;;25.12;57.09
34672;BME280;55835;52.096;21.060;2022-07-23T00:13:19;100428.38;;;25.11;56.80
34672;BME280;55835;52.096;21.060;2022-07-23T00:15:45;100425.50;;;25.13;57.19
34672;BME280;55835;52.096;21.060;2022-07-23T00:18:12;100431.72;;;25.13;57.21
34672;BME280;55835;52.096;21.060;2022-07-23T00:20:40;100430.06;;;25.12;57.08
34672;BME280;55835;52.096;21.060;2022-07-23T00:23:07;100427.34;;;25.12;57.21
34672;BME280;55835;52.096;21.060;2022-07-23T00:25:34;100428.38;;;25.11;56.96
34672;BME280;55835;52.096;21.060;2022-07-23T00:28:01;100433.75;;;25.11;57.17
34672;BME280;55835;52.096;21.060;2022-07-23T00:30:28;100427.53;;;25.11;56.90
34672;BME280;55835;52.096;21.060;2022-07-23T00:32:57;100431.88;;;25.12;56.94
34672;BME280;55835;52.096;21.060;2022-07-23T00:35:25;100422.97;;;25.11;56.64
34672;BME280;55835;52.096;21.060;2022-07-23T00:37:54;100427.34;;;25.12;56.99
34672;BME280;55835;52.096;21.060;2022-07-23T00:40:22;100426.69;;;25.10;56.76
34672;BME280;55835;52.096;21.060;2022-07-23T00:42:49;100433.75;;;25.11;56.58
34672;BME280;55835;52.096;21.060;2022-07-23T00:45:16;100427.72;;;25.09;56.25
34672;BME280;55835;52.096;21.060;2022-07-23T00:47:43;100424.00;;;25.10;56.69
34672;BME280;55835;52.096;21.060;2022-07-23T00:50:10;100425.03;;;25.09;57.03
34672;BME280;55835;52.096;21.060;2022-07-23T00:52:38;100427.72;;;25.09;56.79
34672;BME280;55835;52.096;21.060;2022-07-23T00:55:08;100425.84;;;25.10;56.67
34672;BME280;55835;52.096;21.060;2022-07-23T00:57:36;100426.88;;;25.09;56.50
34672;BME280;55835;52.096;21.060;2022-07-23T01:00:05;100431.25;;;25.10;56.70
34672;BME280;55835;52.096;21.060;2022-07-23T01:02:32;100426.03;;;25.08;56.76
34672;BME280;55835;52.096;21.060;2022-07-23T01:04:59;100430.41;;;25.09;56.77
34672;BME280;55835;52.096;21.060;2022-07-23T01:07:26;100421.69;;;25.07;56.54
34672;BME280;55835;52.096;21.060;2022-07-23T01:09:54;100428.75;;;25.08;56.69
34672;BME280;55835;52.096;21.060;2022-07-23T01:12:22;100423.34;;;25.08;56.59
34672;BME280;55835;52.096;21.060;2022-07-23T01:14:53;100422.53;;;25.08;56.55
34672;BME280;55835;52.096;21.060;2022-07-23T01:17:20;100427.91;;;25.08;56.31
34672;BME280;55835;52.096;21.060;2022-07-23T01:19:47;100433.31;;;25.08;56.34
34672;BME280;55835;52.096;21.060;2022-07-23T01:22:14;100423.72;;;25.05;56.46
34672;BME280;55835;52.096;21.060;2022-07-23T01:24:43;100427.28;;;25.05;56.54
34672;BME280;55835;52.096;21.060;2022-07-23T01:27:09;100435.34;;;25.05;57.02
34672;BME280;55835;52.096;21.060;2022-07-23T01:29:38;100429.97;;;25.05;56.78
34672;BME280;55835;52.096;21.060;2022-07-23T01:32:05;100425.59;;;25.04;56.12
34672;BME280;55835;52.096;21.060;2022-07-23T01:34:31;100427.47;;;25.04;56.50
34672;BME280;55835;52.096;21.060;2022-07-23T01:36:58;100430.97;;;25.04;56.30
34672;BME280;55835;52.096;21.060;2022-07-23T01:39:25;100434.50;;;25.05;56.66
34672;BME280;55835;52.096;21.060;2022-07-23T01:41:53;100431.81;;;25.05;56.42
34672;BME280;55835;52.096;21.060;2022-07-23T01:44:19;100436.38;;;25.04;56.30
34672;BME280;55835;52.096;21.060;2022-07-23T01:46:46;100434.50;;;25.05;56.39
34672;BME280;55835;52.096;21.060;2022-07-23T01:49:13;100432.84;;;25.04;56.30
34672;BME280;55835;52.096;21.060;2022-07-23T01:51:40;100428.28;;;25.04;56.27
34672;BME280;55835;52.096;21.060;2022-07-23T01:54:25;100431.16;;;25.03;56.20
34672;BME280;55835;52.096;21.060;2022-07-23T01:56:53;100427.63;;;25.02;56.32
34672;BME280;55835;52.096;21.060;2022-07-23T01:59:20;100421.44;;;25.02;56.22
34672;BME280;55835;52.096;21.060;2022-07-23T02:01:46;100422.44;;;25.01;56.12
34672;BME280;55835;52.096;21.060;2022-07-23T02:04:14;100422.44;;;25.01;56.47
34672;BME280;55835;52.096;21.060;2022-07-23T02:06:40;100428.66;;;25.01;56.42
34672;BME280;55835;52.096;21.060;2022-07-23T02:09:07;100433.22;;;25.01;56.28
34672;BME280;55835;52.096;21.060;2022-07-23T02:11:34;100426.13;;;25.00;56.52
34672;BME280;55835;52.096;21.060;2022-07-23T02:14:02;100426.13;;;25.00;56.34
34672;BME280;55835;52.096;21.060;2022-07-23T02:16:29;100429.88;;;24.99;56.45
34672;BME280;55835;52.096;21.060;2022-07-23T02:18:55;100433.41;;;24.99;56.54
34672;BME280;55835;52.096;21.060;2022-07-23T02:21:22;100431.53;;;25.00;56.06
34672;BME280;55835;52.096;21.060;2022-07-23T02:23:49;100426.13;;;25.00;56.00
34672;BME280;55835;52.096;21.060;2022-07-23T02:26:16;100427.00;;;25.00;56.24
34672;BME280;55835;52.096;21.060;2022-07-23T02:28:43;100424.50;;;24.99;56.33
34672;BME280;55835;52.096;21.060;2022-07-23T02:31:11;100421.78;;;24.99;56.03
34672;BME280;55835;52.096;21.060;2022-07-23T02:33:37;100425.31;;;24.99;56.08
34672;BME280;55835;52.096;21.060;2022-07-23T02:36:04;100413.72;;;24.99;56.42
34672;BME280;55835;52.096;21.060;2022-07-23T02:38:31;100424.50;;;24.99;55.92
34672;BME280;55835;52.096;21.060;2022-07-23T02:40:58;100421.16;;;24.97;55.91
34672;BME280;55835;52.096;21.060;2022-07-23T02:43:25;100405.00;;;24.97;56.10
34672;BME280;55835;52.096;21.060;2022-07-23T02:45:51;100409.34;;;24.98;55.96
34672;BME280;55835;52.096;21.060;2022-07-23T02:48:19;100410.38;;;24.97;56.43
34672;BME280;55835;52.096;21.060;2022-07-23T02:50:46;100409.53;;;24.96;56.51
34672;BME280;55835;52.096;21.060;2022-07-23T02:53:13;100401.44;;;24.96;55.72
34672;BME280;55835;52.096;21.060;2022-07-23T02:55:39;100406.81;;;24.96;56.33
34672;BME280;55835;52.096;21.060;2022-07-23T02:58:06;100414.09;;;24.96;56.19
34672;BME280;55835;52.096;21.060;2022-07-23T03:00:33;100402.47;;;24.95;55.96
34672;BME280;55835;52.096;21.060;2022-07-23T03:03:00;100401.63;;;24.95;55.80
34672;BME280;55835;52.096;21.060;2022-07-23T03:05:28;100405.19;;;24.95;55.94
34672;BME280;55835;52.096;21.060;2022-07-23T03:07:54;100404.31;;;24.95;56.12
34672;BME280;55835;52.096;21.060;2022-07-23T03:10:21;100394.59;;;24.94;56.16
34672;BME280;55835;52.096;21.060;2022-07-23T03:12:48;100398.94;;;24.95;56.03
34672;BME280;55835;52.096;21.060;2022-07-23T03:15:14;100401.63;;;24.95;56.47
34672;BME280;55835;52.096;21.060;2022-07-23T03:17:41;100404.31;;;24.95;56.01
34672;BME280;55835;52.096;21.060;2022-07-23T03:20:09;100402.66;;;24.94;56.53
34672;BME280;55835;52.096;21.060;2022-07-23T03:22:37;100406.19;;;24.94;56.12
34672;BME280;55835;52.096;21.060;2022-07-23T03:25:05;100404.50;;;24.93;55.84
34672;BME280;55835;52.096;21.060;2022-07-23T03:27:32;100409.06;;;24.93;56.40
34672;BME280;55835;52.096;21.060;2022-07-23T03:29:59;100412.59;;;24.93;56.32
34672;BME280;55835;52.096;21.060;2022-07-23T03:32:26;100407.19;;;24.93;56.59
34672;BME280;55835;52.096;21.060;2022-07-23T03:34:53;100417.16;;;24.93;56.13
34672;BME280;55835;52.096;21.060;2022-07-23T03:37:20;100411.94;;;24.91;56.67
34672;BME280;55835;52.096;21.060;2022-07-23T03:39:48;100409.06;;;24.93;56.11
34672;BME280;55835;52.096;21.060;2022-07-23T03:42:15;100415.28;;;24.93;56.60
34672;BME280;55835;52.096;21.060;2022-07-23T03:44:41;100415.50;;;24.92;56.55
34672;BME280;55835;52.096;21.060;2022-07-23T03:47:08;100426.06;;;24.93;56.51
34672;BME280;55835;52.096;21.060;2022-07-23T03:49:35;100416.50;;;24.91;56.42
34672;BME280;55835;52.096;21.060;2022-07-23T03:52:02;100420.88;;;24.92;56.29
34672;BME280;55835;52.096;21.060;2022-07-23T03:54:28;100411.94;;;24.91;56.74
34672;BME280;55835;52.096;21.060;2022-07-23T03:56:56;100416.50;;;24.91;56.80
34672;BME280;55835;52.096;21.060;2022-07-23T03:59:23;100416.50;;;24.91;56.71
34672;BME280;55835;52.096;21.060;2022-07-23T04:01:50;100412.81;;;24.92;56.75
34672;BME280;55835;52.096;21.060;2022-07-23T04:04:16;100419.19;;;24.91;56.56
34672;BME280;55835;52.096;21.060;2022-07-23T04:06:43;100426.25;;;24.92;56.70
34672;BME280;55835;52.096;21.060;2022-07-23T04:09:10;100420.66;;;24.93;56.90
34672;BME280;55835;52.096;21.060;2022-07-23T04:11:36;100424.31;;;24.85;56.75
34672;BME280;55835;52.096;21.060;2022-07-23T04:14:05;100426.19;;;24.85;56.80
34672;BME280;55835;52.096;21.060;2022-07-23T04:16:32;100426.34;;;24.83;57.12
34672;BME280;55835;52.096;21.060;2022-07-23T04:18:59;100430.06;;;24.82;56.96
34672;BME280;55835;52.096;21.060;2022-07-23T04:21:25;100427.56;;;24.81;57.11
34672;BME280;55835;52.096;21.060;2022-07-23T04:23:52;100429.22;;;24.82;57.34
34672;BME280;55835;52.096;21.060;2022-07-23T04:26:18;100425.31;;;24.84;56.88
34672;BME280;55835;52.096;21.060;2022-07-23T04:28:46;100424.69;;;24.82;56.80
34672;BME280;55835;52.096;21.060;2022-07-23T04:31:14;100427.56;;;24.81;57.56
34672;BME280;55835;52.096;21.060;2022-07-23T04:33:41;100430.06;;;24.82;57.26
34672;BME280;55835;52.096;21.060;2022-07-23T04:36:08;100425.50;;;24.83;57.36
34672;BME280;55835;52.096;21.060;2022-07-23T04:38:34;100413.91;;;24.82;57.32
34672;BME280;55835;52.096;21.060;2022-07-23T04:41:01;100414.72;;;24.83;57.12
34672;BME280;55835;52.096;21.060;2022-07-23T04:43:28;100410.19;;;24.83;57.15
34672;BME280;55835;52.096;21.060;2022-07-23T04:45:54;100406.66;;;24.83;57.18
34672;BME280;55835;52.096;21.060;2022-07-23T04:48:23;100403.13;;;24.82;57.32
34672;BME280;55835;52.096;21.060;2022-07-23T04:50:49;100411.84;;;24.84;57.23
34672;BME280;55835;52.096;21.060;2022-07-23T04:53:16;100407.31;;;24.85;57.73
34672;BME280;55835;52.096;21.060;2022-07-23T04:55:43;100409.84;;;24.86;57.63
34672;BME280;55835;52.096;21.060;2022-07-23T04:58:10;100422.25;;;24.88;57.33
34672;BME280;55835;52.096;21.060;2022-07-23T05:00:37;100422.25;;;24.88;57.86
34672;BME280;55835;52.096;21.060;2022-07-23T05:03:03;100418.56;;;24.89;57.36
34672;BME280;55835;52.096;21.060;2022-07-23T05:05:31;100420.03;;;24.91;57.32
34672;BME280;55835;52.096;21.060;2022-07-23T05:07:58;100419.00;;;24.92;57.36
34672;BME280;55835;52.096;21.060;2022-07-23T05:10:25;100432.28;;;24.94;57.51
34672;BME280;55835;52.096;21.060;2022-07-23T05:12:51;100426.91;;;24.94;57.51
34672;BME280;55835;52.096;21.060;2022-07-23T05:15:18;100430.44;;;24.94;57.88
34672;BME280;55835;52.096;21.060;2022-07-23T05:17:45;100441.19;;;24.94;57.93
34672;BME280;55835;52.096;21.060;2022-07-23T05:20:12;100429.59;;;24.94;57.94
34672;BME280;55835;52.096;21.060;2022-07-23T05:22:42;100428.00;;;24.84;58.19
34672;BME280;55835;52.096;21.060;2022-07-23T05:25:08;100433.50;;;24.76;58.50
34672;BME280;55835;52.096;21.060;2022-07-23T05:27:35;100434.78;;;24.65;58.66
34672;BME280;55835;52.096;21.060;2022-07-23T05:30:02;100432.09;;;24.51;59.30
34672;BME280;55835;52.096;21.060;2022-07-23T05:32:31;100421.50;;;24.64;58.97
34672;BME280;55835;52.096;21.060;2022-07-23T05:34:58;100424.03;;;24.65;58.60
34672;BME280;55835;52.096;21.060;2022-07-23T05:37:25;100420.78;;;24.55;58.54
34672;BME280;55835;52.096;21.060;2022-07-23T05:39:53;100425.00;;;24.49;58.47
34672;BME280;55835;52.096;21.060;2022-07-23T05:42:19;100423.22;;;24.42;58.78
34672;BME280;55835;52.096;21.060;2022-07-23T05:44:46;100421.09;;;24.37;58.28
34672;BME280;55835;52.096;21.060;2022-07-23T05:47:13;100417.75;;;24.35;58.19
34672;BME280;55835;52.096;21.060;2022-07-23T05:49:40;100419.97;;;24.31;58.61
34672;BME280;55835;52.096;21.060;2022-07-23T05:52:07;100422.66;;;24.31;58.42
34672;BME280;55835;52.096;21.060;2022-07-23T05:54:34;100425.56;;;24.30;58.20
34672;BME280;55835;52.096;21.060;2022-07-23T05:57:03;100416.44;;;24.31;58.75
34672;BME280;55835;52.096;21.060;2022-07-23T05:59:30;100417.47;;;24.30;58.63
34672;BME280;55835;52.096;21.060;2022-07-23T06:01:57;100418.47;;;24.29;58.94
34672;BME280;55835;52.096;21.060;2022-07-23T06:04:23;100408.09;;;24.26;59.10
34672;BME280;55835;52.096;21.060;2022-07-23T06:06:51;100420.16;;;24.30;59.14
34672;BME280;55835;52.096;21.060;2022-07-23T06:09:17;100414.78;;;24.30;59.08
34672;BME280;55835;52.096;21.060;2022-07-23T06:11:44;100424.69;;;24.29;59.47
34672;BME280;55835;52.096;21.060;2022-07-23T06:14:12;100414.78;;;24.30;59.48
34672;BME280;55835;52.096;21.060;2022-07-23T06:16:39;100414.97;;;24.28;58.84
34672;BME280;55835;52.096;21.060;2022-07-23T06:19:06;100421.81;;;24.31;59.16
34672;BME280;55835;52.096;21.060;2022-07-23T06:21:32;100414.78;;;24.30;58.82
34672;BME280;55835;52.096;21.060;2022-07-23T06:23:59;100399.66;;;24.29;58.79
34672;BME280;55835;52.096;21.060;2022-07-23T06:26:26;100411.06;;;24.31;58.52
34672;BME280;55835;52.096;21.060;2022-07-23T06:28:53;100409.00;;;24.33;58.55
34672;BME280;55835;52.096;21.060;2022-07-23T06:31:21;100411.06;;;24.31;58.38
34672;BME280;55835;52.096;21.060;2022-07-23T06:33:47;100419.31;;;24.29;58.51
34672;BME280;55835;52.096;21.060;2022-07-23T06:36:14;100413.75;;;24.31;58.72
34672;BME280;55835;52.096;21.060;2022-07-23T06:38:40;100417.28;;;24.31;58.67
34672;BME280;55835;52.096;21.060;2022-07-23T06:41:07;100413.56;;;24.33;58.15
34672;BME280;55835;52.096;21.060;2022-07-23T06:43:34;100403.63;;;24.33;58.63
34672;BME280;55835;52.096;21.060;2022-07-23T06:46:01;100410.34;;;24.37;58.17
34672;BME280;55835;52.096;21.060;2022-07-23T06:48:29;100404.78;;;24.39;57.69
34672;BME280;55835;52.096;21.060;2022-07-23T06:50:55;100413.69;;;24.39;57.66
34672;BME280;55835;52.096;21.060;2022-07-23T06:53:22;100405.41;;;24.41;57.77
34672;BME280;55835;52.096;21.060;2022-07-23T06:55:49;100404.38;;;24.42;57.87
34672;BME280;55835;52.096;21.060;2022-07-23T06:58:15;100398.81;;;24.43;57.60
34672;BME280;55835;52.096;21.060;2022-07-23T07:00:43;100389.75;;;24.44;57.01
34672;BME280;55835;52.096;21.060;2022-07-23T07:03:10;100396.81;;;24.45;57.07
34672;BME280;55835;52.096;21.060;2022-07-23T07:05:38;100390.38;;;24.46;57.11
34672;BME280;55835;52.096;21.060;2022-07-23T07:08:06;100398.47;;;24.46;57.42
34672;BME280;55835;52.096;21.060;2022-07-23T07:10:32;100391.03;;;24.48;57.46
34672;BME280;55835;52.096;21.060;2022-07-23T07:12:59;100391.03;;;24.48;57.24
34672;BME280;55835;52.096;21.060;2022-07-23T07:15:26;100383.81;;;24.49;56.84
34672;BME280;55835;52.096;21.060;2022-07-23T07:17:52;100389.00;;;24.51;58.22
34672;BME280;55835;52.096;21.060;2022-07-23T07:20:19;100392.34;;;24.53;57.45
34672;BME280;55835;52.096;21.060;2022-07-23T07:22:47;100383.09;;;24.55;57.34
34672;BME280;55835;52.096;21.060;2022-07-23T07:25:14;100379.56;;;24.55;57.50
34672;BME280;55835;52.096;21.060;2022-07-23T07:27:41;100385.59;;;24.57;57.40
34672;BME280;55835;52.096;21.060;2022-07-23T07:31:32;100381.56;;;24.53;58.17
34672;BME280;55835;52.096;21.060;2022-07-23T07:33:59;100384.22;;;24.61;57.19
34672;BME280;55835;52.096;21.060;2022-07-23T07:36:26;100385.22;;;24.60;56.80
34672;BME280;55835;52.096;21.060;2022-07-23T07:38:53;100381.94;;;24.79;56.87
34672;BME280;55835;52.096;21.060;2022-07-23T07:41:19;100377.25;;;24.81;56.76
34672;BME280;55835;52.096;21.060;2022-07-23T07:43:49;100379.66;;;24.76;56.83
34672;BME280;55835;52.096;21.060;2022-07-23T07:46:16;100378.16;;;24.74;57.40
34672;BME280;55835;52.096;21.060;2022-07-23T07:48:44;100378.06;;;24.67;59.19
34672;BME280;55835;52.096;21.060;2022-07-23T07:51:11;100378.53;;;24.71;58.42
34672;BME280;55835;52.096;21.060;2022-07-23T07:53:37;100375.66;;;24.72;57.59
34672;BME280;55835;52.096;21.060;2022-07-23T07:56:05;100376.88;;;24.70;56.79
34672;BME280;55835;52.096;21.060;2022-07-23T07:58:31;100380.13;;;24.65;56.44
34672;BME280;55835;52.096;21.060;2022-07-23T08:00:58;100383.44;;;24.67;56.19
34672;BME280;55835;52.096;21.060;2022-07-23T08:03:25;100385.78;;;24.70;55.62
34672;BME280;55835;52.096;21.060;2022-07-23T08:05:54;100376.47;;;24.73;55.84
34672;BME280;55835;52.096;21.060;2022-07-23T08:08:20;100397.97;;;24.66;55.41
34672;BME280;55835;52.096;21.060;2022-07-23T08:10:47;100380.38;;;24.70;55.25
34672;BME280;55835;52.096;21.060;2022-07-23T08:13:15;100388.84;;;24.67;55.46
34672;BME280;55835;52.096;21.060;2022-07-23T08:15:43;100382.81;;;24.65;55.48
34672;BME280;55835;52.096;21.060;2022-07-23T08:18:10;100378.97;;;24.74;55.42
34672;BME280;55835;52.096;21.060;2022-07-23T08:20:37;100379.44;;;24.93;55.64
34672;BME280;55835;52.096;21.060;2022-07-23T08:23:06;100384.81;;;25.08;54.97
34672;BME280;55835;52.096;21.060;2022-07-23T08:25:35;100383.28;;;25.20;54.70
34672;BME280;55835;52.096;21.060;2022-07-23T08:28:04;100385.53;;;25.31;54.38
34672;BME280;55835;52.096;21.060;2022-07-23T08:30:32;100383.91;;;25.37;54.41
34672;BME280;55835;52.096;21.060;2022-07-23T08:33:01;100376.91;;;25.42;54.27
34672;BME280;55835;52.096;21.060;2022-07-23T08:35:30;100378.84;;;25.49;54.15
34672;BME280;55835;52.096;21.060;2022-07-23T08:37:58;100382.00;;;25.52;53.63
34672;BME280;55835;52.096;21.060;2022-07-23T08:40:28;100378.56;;;25.58;53.29
34672;BME280;55835;52.096;21.060;2022-07-23T08:42:56;100381.50;;;25.64;53.46
34672;BME280;55835;52.096;21.060;2022-07-23T08:45:25;100390.22;;;25.66;53.37
34672;BME280;55835;52.096;21.060;2022-07-23T08:47:55;100381.34;;;25.72;52.93
34672;BME280;55835;52.096;21.060;2022-07-23T08:50:23;100386.41;;;25.60;54.08
34672;BME280;55835;52.096;21.060;2022-07-23T08:52:51;100383.16;;;25.43;54.45
34672;BME280;55835;52.096;21.060;2022-07-23T08:55:19;100378.06;;;25.33;54.04
34672;BME280;55835;52.096;21.060;2022-07-23T08:57:49;100382.16;;;25.29;54.31
34672;BME280;55835;52.096;21.060;2022-07-23T09:00:17;100375.66;;;25.23;53.77
34672;BME280;55835;52.096;21.060;2022-07-23T09:02:45;100378.53;;;25.22;53.65
34672;BME280;55835;52.096;21.060;2022-07-23T09:05:13;100370.63;;;25.20;53.85
34672;BME280;55835;52.096;21.060;2022-07-23T09:08:05;100379.38;;;25.22;53.64
34672;BME280;55835;52.096;21.060;2022-07-23T09:10:43;100377.06;;;25.19;53.45
34672;BME280;55835;52.096;21.060;2022-07-23T09:13:27;100376.03;;;25.20;53.59
34672;BME280;55835;52.096;21.060;2022-07-23T09:15:55;100366.28;;;25.19;53.56
34672;BME280;55835;52.096;21.060;2022-07-23T09:18:32;100375.38;;;25.18;53.62
34672;BME280;55835;52.096;21.060;2022-07-23T09:21:17;100370.81;;;25.19;53.60
34672;BME280;55835;52.096;21.060;2022-07-23T09:23:46;100374.56;;;25.18;52.98
34672;BME280;55835;52.096;21.060;2022-07-23T09:26:22;100373.31;;;25.20;52.55
34672;BME280;55835;52.096;21.060;2022-07-23T09:28:54;100376.88;;;25.21;53.06
34672;BME280;55835;52.096;21.060;2022-07-23T09:31:22;100367.94;;;25.20;53.59
34672;BME280;55835;52.096;21.060;2022-07-23T09:33:49;100359.84;;;25.20;53.22
34672;BME280;55835;52.096;21.060;2022-07-23T09:36:27;100367.94;;;25.20;53.37
34672;BME280;55835;52.096;21.060;2022-07-23T09:38:54;100361.34;;;25.23;53.81
34672;BME280;55835;52.096;21.060;2022-07-23T09:41:21;100363.84;;;25.24;53.58
34672;BME280;55835;52.096;21.060;2022-07-23T09:43:55;100365.16;;;25.29;53.80
34672;BME280;55835;52.096;21.060;2022-07-23T09:46:24;100365.63;;;25.32;53.75
34672;BME280;55835;52.096;21.060;2022-07-23T09:48:51;100361.28;;;25.31;53.57
34672;BME280;55835;52.096;21.060;2022-07-23T09:51:18;100360.41;;;25.31;53.16
34672;BME280;55835;52.096;21.060;2022-07-23T09:53:48;100359.41;;;25.32;53.30
34672;BME280;55835;52.096;21.060;2022-07-23T09:56:15;100353.19;;;25.31;52.87
34672;BME280;55835;52.096;21.060;2022-07-23T09:58:44;100345.28;;;25.30;53.25
34672;BME280;55835;52.096;21.060;2022-07-23T10:01:16;100350.50;;;25.31;52.60
34672;BME280;55835;52.096;21.060;2022-07-23T10:03:43;100356.31;;;25.35;52.27
34672;BME280;55835;52.096;21.060;2022-07-23T10:06:12;100354.84;;;25.32;52.28
34672;BME280;55835;52.096;21.060;2022-07-23T10:08:40;100350.94;;;25.35;52.27
34672;BME280;55835;52.096;21.060;2022-07-23T10:11:09;100346.56;;;25.34;52.21
34672;BME280;55835;52.096;21.060;2022-07-23T10:13:36;100344.50;;;25.36;52.52
34672;BME280;55835;52.096;21.060;2022-07-23T10:16:20;100356.13;;;25.36;52.26
34672;BME280;55835;52.096;21.060;2022-07-23T10:18:47;100335.59;;;25.35;52.03
34672;BME280;55835;52.096;21.060;2022-07-23T10:21:20;100338.09;;;25.37;51.58
34672;BME280;55835;52.096;21.060;2022-07-23T10:24:01;100335.78;;;25.34;51.62
34672;BME280;55835;52.096;21.060;2022-07-23T10:26:35;100336.59;;;25.34;51.83
34672;BME280;55835;52.096;21.060;2022-07-23T10:29:14;100341.16;;;25.34;51.79
34672;BME280;55835;52.096;21.060;2022-07-23T10:31:54;100335.41;;;25.37;50.68
34672;BME280;55835;52.096;21.060;2022-07-23T10:34:33;100335.03;;;25.40;51.33
34672;BME280;55835;52.096;21.060;2022-07-23T10:37:12;100329.63;;;25.40;50.75
34672;BME280;55835;52.096;21.060;2022-07-23T10:39:41;100329.25;;;25.43;50.96
34672;BME280;55835;52.096;21.060;2022-07-23T10:42:10;100329.25;;;25.43;51.17
34672;BME280;55835;52.096;21.060;2022-07-23T10:44:41;100323.88;;;25.43;50.96
34672;BME280;55835;52.096;21.060;2022-07-23T10:47:10;100329.88;;;25.45;51.34
34672;BME280;55835;52.096;21.060;2022-07-23T10:49:53;100324.13;;;25.48;50.76
34672;BME280;55835;52.096;21.060;2022-07-23T10:52:25;100327.19;;;25.45;51.38
34672;BME280;55835;52.096;21.060;2022-07-23T10:54:54;100330.53;;;25.47;51.32
34672;BME280;55835;52.096;21.060;2022-07-23T10:57:22;100336.75;;;25.48;50.88
34672;BME280;55835;52.096;21.060;2022-07-23T11:00:12;100327.19;;;25.45;50.85
34672;BME280;55835;52.096;21.060;2022-07-23T11:02:42;100332.22;;;25.48;50.39
34672;BME280;55835;52.096;21.060;2022-07-23T11:05:12;100324.75;;;25.50;50.48
34672;BME280;55835;52.096;21.060;2022-07-23T11:08:13;100331.78;;;25.51;50.22
34672;BME280;55835;52.096;21.060;2022-07-23T11:10:45;100324.75;;;25.50;49.92
34672;BME280;55835;52.096;21.060;2022-07-23T11:13:47;100312.72;;;25.53;50.40
34672;BME280;55835;52.096;21.060;2022-07-23T11:16:17;100318.97;;;25.53;50.16
34672;BME280;55835;52.096;21.060;2022-07-23T11:19:00;100318.97;;;25.53;50.18
34672;BME280;55835;52.096;21.060;2022-07-23T11:21:46;100314.59;;;25.52;49.76
34672;BME280;55835;52.096;21.060;2022-07-23T11:24:18;100311.09;;;25.52;49.99
34672;BME280;55835;52.096;21.060;2022-07-23T11:26:52;100311.09;;;25.52;50.09
34672;BME280;55835;52.096;21.060;2022-07-23T11:29:47;100317.28;;;25.52;50.39
34672;BME280;55835;52.096;21.060;2022-07-23T11:32:37;100325.38;;;25.52;50.11
34672;BME280;55835;52.096;21.060;2022-07-23T11:35:24;100322.31;;;25.55;50.19
34672;BME280;55835;52.096;21.060;2022-07-23T11:37:53;100314.22;;;25.55;50.69
34672;BME280;55835;52.096;21.060;2022-07-23T11:40:24;100317.09;;;25.54;50.34
34672;BME280;55835;52.096;21.060;2022-07-23T11:42:57;100312.34;;;25.56;50.13
34672;BME280;55835;52.096;21.060;2022-07-23T11:45:26;100307.78;;;25.56;50.26
34672;BME280;55835;52.096;21.060;2022-07-23T11:47:55;100305.09;;;25.56;50.14
34672;BME280;55835;52.096;21.060;2022-07-23T11:50:24;100311.53;;;25.55;50.14
34672;BME280;55835;52.096;21.060;2022-07-23T11:52:51;100296.63;;;25.59;49.88
34672;BME280;55835;52.096;21.060;2022-07-23T11:55:19;100303.69;;;25.60;49.86
34672;BME280;55835;52.096;21.060;2022-07-23T11:57:46;100305.34;;;25.61;50.30
34672;BME280;55835;52.096;21.060;2022-07-23T12:00:15;100296.63;;;25.59;50.39
34672;BME280;55835;52.096;21.060;2022-07-23T12:02:45;100289.97;;;25.55;50.13
34672;BME280;55835;52.096;21.060;2022-07-23T12:05:14;100278.56;;;25.60;50.53
34672;BME280;55835;52.096;21.060;2022-07-23T12:07:43;100277.09;;;25.57;50.07
34672;BME280;55835;52.096;21.060;2022-07-23T12:10:13;100272.34;;;25.59;50.05
34672;BME280;55835;52.096;21.060;2022-07-23T12:12:42;100267.78;;;25.60;49.79
34672;BME280;55835;52.096;21.060;2022-07-23T12:15:09;100271.34;;;25.60;49.87
34672;BME280;55835;52.096;21.060;2022-07-23T12:17:38;100268.19;;;25.57;50.33
34672;BME280;55835;52.096;21.060;2022-07-23T12:20:07;100260.94;;;25.57;50.03
34672;BME280;55835;52.096;21.060;2022-07-23T12:22:37;100257.84;;;25.60;49.99
34672;BME280;55835;52.096;21.060;2022-07-23T12:25:07;100255.16;;;25.60;49.83
34672;BME280;55835;52.096;21.060;2022-07-23T12:27:34;100253.09;;;25.63;50.37
34672;BME280;55835;52.096;21.060;2022-07-23T12:30:18;100254.78;;;25.64;50.71
34672;BME280;55835;52.096;21.060;2022-07-23T12:32:47;100249.38;;;25.64;50.33
34672;BME280;55835;52.096;21.060;2022-07-23T12:35:14;100243.13;;;25.63;50.09
34672;BME280;55835;52.096;21.060;2022-07-23T12:37:42;100236.09;;;25.62;50.29
34672;BME280;55835;52.096;21.060;2022-07-23T12:40:25;100237.72;;;25.63;50.10
34672;BME280;55835;52.096;21.060;2022-07-23T12:42:55;100240.63;;;25.61;50.62
34672;BME280;55835;52.096;21.060;2022-07-23T12:45:22;100236.28;;;25.60;49.78
34672;BME280;55835;52.096;21.060;2022-07-23T12:47:58;100228.00;;;25.62;49.83
34672;BME280;55835;52.096;21.060;2022-07-23T12:50:39;100227.13;;;25.61;49.54